createdAt,value
2018-07-17T00:02:20.713Z,101393.91
2018-07-17T00:04:48.684Z,101394.79
2018-07-17T00:07:16.808Z,101395.30
2018-07-17T00:09:45.426Z,101394.03
2018-07-17T00:12:13.090Z,101396.30
2018-07-17T00:14:40.862Z,101395.51
2018-07-17T00:17:09.103Z,101389.39
2018-07-17T00:19:37.193Z,101391.70
2018-07-17T00:22:05.110Z,101392.58
2018-07-17T00:24:32.775Z,101386.47
2018-07-17T00:27:00.859Z,101390.44
2018-07-17T00:29:29.082Z,101379.45
2018-07-17T00:31:57.084Z,101378.66
2018-07-17T00:34:25.285Z,101382.22
2018-07-17T00:36:52.928Z,101374.80
2018-07-17T00:39:21.219Z,101370.02
2018-07-17T00:41:49.178Z,101372.27
2018-07-17T00:44:16.846Z,101366.58
2018-07-17T00:46:45.150Z,101366.25
2018-07-17T00:49:13.094Z,101363.59
2018-07-17T00:51:41.088Z,101365.43
2018-07-17T00:54:09.293Z,101366.84
2018-07-17T00:56:36.968Z,101363.83
2018-07-17T00:59:04.848Z,101364.31
2018-07-17T01:01:38.498Z,101356.88
2018-07-17T01:04:11.820Z,101352.50
2018-07-17T01:06:45.103Z,101358.73
2018-07-17T01:09:18.214Z,101352.23
2018-07-17T01:11:51.400Z,101358.45
2018-07-17T01:14:39.208Z,101362.09
2018-07-17T01:17:07.254Z,101360.83
2018-07-17T01:19:34.988Z,101357.30
2018-07-17T01:22:03.102Z,101360.04
2018-07-17T01:24:30.815Z,101364.02
2018-07-17T01:26:58.813Z,101365.39
2018-07-17T01:29:26.569Z,101365.84
2018-07-17T01:31:54.466Z,101365.45
2018-07-17T01:34:22.409Z,101364.58
2018-07-17T01:36:50.339Z,101362.91
2018-07-17T01:39:17.996Z,101351.00
2018-07-17T01:41:46.177Z,101354.63
2018-07-17T01:44:15.919Z,101360.80
2018-07-17T01:46:45.107Z,101361.31
2018-07-17T01:49:12.982Z,101356.07
2018-07-17T01:51:40.670Z,101358.80
2018-07-17T01:54:08.739Z,101358.38
2018-07-17T01:56:36.764Z,101360.19
2018-07-17T01:59:04.797Z,101357.20
2018-07-17T02:01:32.802Z,101355.50
2018-07-17T02:04:00.535Z,101356.40
2018-07-17T02:06:28.260Z,101361.75
2018-07-17T02:08:56.250Z,101360.03
2018-07-17T02:11:24.244Z,101355.67
2018-07-17T02:13:52.617Z,101358.42
2018-07-17T02:16:20.365Z,101355.38
2018-07-17T02:18:48.728Z,101353.66
2018-07-17T02:21:16.466Z,101351.95
2018-07-17T02:23:44.325Z,101350.69
2018-07-17T02:26:12.281Z,101346.77
2018-07-17T02:28:40.334Z,101344.63
2018-07-17T02:31:08.463Z,101349.08
2018-07-17T02:33:36.426Z,101336.34
2018-07-17T02:36:04.740Z,101339.08
2018-07-17T02:38:32.394Z,101331.24
2018-07-17T02:41:00.278Z,101336.20
2018-07-17T02:43:27.996Z,101336.20
2018-07-17T02:45:55.698Z,101335.86
2018-07-17T02:48:23.419Z,101338.45
2018-07-17T02:50:51.125Z,101331.84
2018-07-17T02:53:19.129Z,101339.34
2018-07-17T02:55:46.758Z,101339.83
2018-07-17T02:58:14.799Z,101340.73
2018-07-17T03:00:42.770Z,101346.95
2018-07-17T03:03:10.700Z,101348.75
2018-07-17T03:05:38.345Z,101342.19
2018-07-17T03:08:06.871Z,101340.47
2018-07-17T03:10:34.531Z,101340.97
2018-07-17T03:13:02.163Z,101337.93
2018-07-17T03:15:30.177Z,101334.80
2018-07-17T03:17:58.417Z,101334.89
2018-07-17T03:20:26.440Z,101343.22
2018-07-17T03:22:54.766Z,101336.72
2018-07-17T03:25:22.876Z,101344.26
2018-07-17T03:27:50.576Z,101345.63
2018-07-17T03:30:18.263Z,101344.76
2018-07-17T03:32:46.452Z,101347.94
2018-07-17T03:35:14.558Z,101348.86
2018-07-17T03:37:42.294Z,101353.73
2018-07-17T03:40:10.455Z,101349.31
2018-07-17T03:42:38.430Z,101355.48
2018-07-17T03:45:06.142Z,101358.63
2018-07-17T03:47:34.167Z,101355.98
2018-07-17T03:50:02.161Z,101364.40
2018-07-17T03:52:30.495Z,101357.78
2018-07-17T03:54:58.181Z,101359.84
2018-07-17T03:57:26.268Z,101354.55
2018-07-17T03:59:53.998Z,101363.70
2018-07-17T04:02:22.100Z,101363.91
2018-07-17T04:04:49.802Z,101359.50
2018-07-17T04:07:18.109Z,101364.78
2018-07-17T04:09:45.817Z,101363.41
2018-07-17T04:12:13.578Z,101356.40
2018-07-17T04:14:41.323Z,101359.05
2018-07-17T04:17:09.374Z,101359.05
2018-07-17T04:19:37.306Z,101355.02
2018-07-17T04:22:05.034Z,101355.52
2018-07-17T04:24:32.984Z,101356.90
2018-07-17T04:27:01.004Z,101352.09
2018-07-17T04:29:28.912Z,101353.33
2018-07-17T04:31:57.456Z,101344.78
2018-07-17T04:34:25.117Z,101353.45
2018-07-17T04:36:52.971Z,101348.61
2018-07-17T04:39:21.657Z,101349.48
2018-07-17T04:41:49.707Z,101349.14
2018-07-17T04:44:17.459Z,101354.88
2018-07-17T04:46:45.237Z,101361.89
2018-07-17T04:49:12.890Z,101364.04
2018-07-17T04:51:40.534Z,101369.28
2018-07-17T04:54:08.202Z,101371.92
2018-07-17T04:56:35.822Z,101361.73
2018-07-17T04:59:03.884Z,101361.14
2018-07-17T05:01:31.557Z,101356.63
2018-07-17T05:03:59.498Z,101349.02
2018-07-17T05:06:27.315Z,101348.97
2018-07-17T05:08:55.363Z,101348.87
2018-07-17T05:11:23.558Z,101348.71
2018-07-17T05:13:51.278Z,101352.48
2018-07-17T05:16:19.014Z,101353.75
2018-07-17T05:18:47.465Z,101351.48
2018-07-17T05:21:15.197Z,101354.07
2018-07-17T05:23:42.931Z,101346.07
2018-07-17T05:26:11.067Z,101346.41
2018-07-17T05:28:39.355Z,101343.70
2018-07-17T05:31:07.934Z,101332.49
2018-07-17T05:33:35.921Z,101348.34
2018-07-17T05:36:03.674Z,101352.20
2018-07-17T05:38:31.630Z,101356.58
2018-07-17T05:40:59.738Z,101350.83
2018-07-17T05:43:27.392Z,101355.59
2018-07-17T05:45:55.024Z,101352.00
2018-07-17T05:48:22.739Z,101348.31
2018-07-17T05:50:50.699Z,101346.54
2018-07-17T05:53:18.407Z,101356.34
2018-07-17T05:55:46.073Z,101357.13
2018-07-17T05:58:13.726Z,101357.47
2018-07-17T06:00:41.414Z,101358.73
2018-07-17T06:03:09.316Z,101356.81
2018-07-17T06:05:37.007Z,101363.77
2018-07-17T06:08:04.649Z,101358.90
2018-07-17T06:10:32.657Z,101365.04
2018-07-17T06:13:00.356Z,101364.59
2018-07-17T06:15:28.039Z,101366.30
2018-07-17T06:17:55.705Z,101369.63
2018-07-17T06:20:24.087Z,101362.06
2018-07-17T06:22:52.109Z,101367.53
2018-07-17T06:25:19.962Z,101372.98
2018-07-17T06:27:47.978Z,101377.74
2018-07-17T06:30:15.689Z,101373.31
2018-07-17T06:32:43.580Z,101385.09
2018-07-17T06:35:11.332Z,101375.42
2018-07-17T06:37:39.250Z,101379.79
2018-07-17T06:40:06.930Z,101378.02
2018-07-17T06:42:34.541Z,101384.13
2018-07-17T06:45:02.263Z,101382.75
2018-07-17T06:47:30.225Z,101378.32
2018-07-17T06:49:57.942Z,101373.02
2018-07-17T06:52:25.632Z,101385.28
2018-07-17T06:54:53.302Z,101386.94
2018-07-17T06:57:21.007Z,101384.68
2018-07-17T06:59:48.705Z,101385.02
2018-07-17T07:02:16.332Z,101381.91
2018-07-17T07:04:44.077Z,101388.87
2018-07-17T07:07:12.171Z,101385.77
2018-07-17T07:09:40.122Z,101379.98
2018-07-17T07:12:09.492Z,101384.44
2018-07-17T07:14:37.650Z,101381.64
2018-07-17T07:17:05.353Z,101382.91
2018-07-17T07:19:33.146Z,101384.17
2018-07-17T07:22:01.101Z,101383.17
2018-07-17T07:24:29.032Z,101376.94
2018-07-17T07:26:56.967Z,101376.94
2018-07-17T07:29:24.653Z,101367.33
2018-07-17T07:31:52.524Z,101379.95
2018-07-17T07:34:20.622Z,101376.36
2018-07-17T07:36:48.282Z,101379.80
2018-07-17T07:39:16.362Z,101372.72
2018-07-17T07:41:44.442Z,101377.95
2018-07-17T07:44:12.119Z,101371.78
2018-07-17T07:46:39.827Z,101374.82
2018-07-17T07:49:07.524Z,101374.82
2018-07-17T07:51:35.601Z,101378.73
2018-07-17T07:54:03.634Z,101380.88
2018-07-17T07:56:31.301Z,101385.19
2018-07-17T07:58:58.990Z,101384.25
2018-07-17T08:01:26.746Z,101387.77
2018-07-17T08:03:54.655Z,101385.45
2018-07-17T08:06:22.298Z,101382.73
2018-07-17T08:08:50.280Z,101385.63
2018-07-17T08:11:18.098Z,101390.93
2018-07-17T08:13:46.325Z,101386.95
2018-07-17T08:16:13.967Z,101379.92
2018-07-17T08:18:41.661Z,101378.99
2018-07-17T08:21:09.761Z,101385.56
2018-07-17T08:23:37.498Z,101378.41
2018-07-17T08:26:05.135Z,101376.93
2018-07-17T08:28:32.898Z,101376.87
2018-07-17T08:31:00.907Z,101376.93
2018-07-17T08:33:28.600Z,101378.06
2018-07-17T08:35:56.866Z,101373.16
2018-07-17T08:38:25.161Z,101372.22
2018-07-17T08:40:53.107Z,101370.83
2018-07-17T08:43:20.946Z,101373.90
2018-07-17T08:45:48.518Z,101375.62
2018-07-17T08:48:16.157Z,101373.80
2018-07-17T08:50:44.778Z,101366.78
2018-07-17T08:53:12.946Z,101374.62
2018-07-17T08:55:40.557Z,101364.81
2018-07-17T08:58:08.214Z,101372.26
2018-07-17T09:00:35.936Z,101364.69
2018-07-17T09:03:03.588Z,101365.08
2018-07-17T09:05:31.284Z,101365.14
2018-07-17T09:07:59.388Z,101365.56
2018-07-17T09:10:27.044Z,101364.69
2018-07-17T09:12:55.056Z,101364.69
2018-07-17T09:15:22.724Z,101366.79
2018-07-17T09:17:50.923Z,101368.93
2018-07-17T09:20:18.578Z,101369.70
2018-07-17T09:22:46.482Z,101361.16
2018-07-17T09:25:14.399Z,101372.62
2018-07-17T09:27:42.048Z,101367.73
2018-07-17T09:30:09.689Z,101366.41
2018-07-17T09:32:37.991Z,101370.77
2018-07-17T09:35:05.884Z,101379.52
2018-07-17T09:37:33.549Z,101378.93
2018-07-17T09:40:01.250Z,101374.08
2018-07-17T09:42:28.870Z,101370.97
2018-07-17T09:44:56.816Z,101367.31
2018-07-17T09:47:25.122Z,101371.12
2018-07-17T09:49:52.802Z,101371.00
2018-07-17T09:52:20.515Z,101365.56
2018-07-17T09:54:48.205Z,101372.58
2018-07-17T09:57:15.894Z,101371.97
2018-07-17T09:59:44.310Z,101375.87
2018-07-17T10:02:17.857Z,101365.58
2018-07-17T10:04:45.813Z,101365.52
2018-07-17T10:07:13.799Z,101365.38
2018-07-17T10:09:41.533Z,101371.95
2018-07-17T10:12:09.365Z,101365.56
2018-07-17T10:14:37.135Z,101365.79
2018-07-17T10:17:05.226Z,101365.66
2018-07-17T10:19:32.901Z,101358.07
2018-07-17T10:22:00.592Z,101362.80
2018-07-17T10:24:28.618Z,101358.16
2018-07-17T10:26:56.304Z,101373.95
2018-07-17T10:29:24.269Z,101368.09
2018-07-17T10:31:52.262Z,101375.43
2018-07-17T10:34:19.909Z,101367.14
2018-07-17T10:36:47.872Z,101367.21
2018-07-17T10:39:16.501Z,101372.70
2018-07-17T10:41:44.668Z,101363.66
2018-07-17T10:44:12.394Z,101368.77
2018-07-17T10:46:40.122Z,101362.37
2018-07-17T10:49:08.112Z,101360.03
2018-07-17T10:51:35.790Z,101362.05
2018-07-17T10:54:03.621Z,101364.26
2018-07-17T10:56:31.382Z,101368.31
2018-07-17T10:58:59.374Z,101365.66
2018-07-17T11:01:27.238Z,101361.18
2018-07-17T11:03:54.972Z,101370.97
2018-07-17T11:06:22.858Z,101368.63
2018-07-17T11:08:50.530Z,101355.27
2018-07-17T11:11:18.458Z,101361.77
2018-07-17T11:13:46.106Z,101355.52
2018-07-17T11:16:13.793Z,101352.22
2018-07-17T11:18:41.807Z,101353.34
2018-07-17T11:21:09.450Z,101355.05
2018-07-17T11:23:37.134Z,101357.95
2018-07-17T11:26:05.374Z,101345.00
2018-07-17T11:28:33.455Z,101349.30
2018-07-17T11:31:01.113Z,101350.10
2018-07-17T11:33:29.000Z,101349.92
2018-07-17T11:35:56.770Z,101346.73
2018-07-17T11:38:24.985Z,101347.12
2018-07-17T11:40:52.897Z,101340.80
2018-07-17T11:43:20.846Z,101346.42
2018-07-17T11:45:48.502Z,101350.47
2018-07-17T11:48:16.267Z,101344.38
2018-07-17T11:50:43.887Z,101332.64
2018-07-17T11:53:11.596Z,101333.36
2018-07-17T11:55:39.359Z,101333.59
2018-07-17T11:58:07.020Z,101331.06
2018-07-17T12:00:35.213Z,101336.23
2018-07-17T12:03:03.117Z,101326.46
2018-07-17T12:05:31.217Z,101328.09
2018-07-17T12:07:58.829Z,101325.18
2018-07-17T12:10:26.803Z,101325.90
2018-07-17T12:12:54.531Z,101325.26
2018-07-17T12:15:22.366Z,101317.27
2018-07-17T12:17:50.051Z,101323.77
2018-07-17T12:20:18.101Z,101331.52
2018-07-17T12:22:45.693Z,101337.87
2018-07-17T12:25:13.708Z,101329.96
2018-07-17T12:27:41.473Z,101329.89
2018-07-17T12:30:15.222Z,101326.05
2018-07-17T12:32:43.470Z,101323.92
2018-07-17T12:35:11.132Z,101320.16
2018-07-17T12:37:38.781Z,101320.42
2018-07-17T12:40:06.724Z,101322.05
2018-07-17T12:42:34.473Z,101317.42
2018-07-17T12:45:02.405Z,101321.94
2018-07-17T12:47:30.591Z,101308.47
2018-07-17T12:49:58.265Z,101311.73
2018-07-17T12:52:26.330Z,101315.00
2018-07-17T12:54:54.231Z,101313.52
2018-07-17T12:57:21.914Z,101298.27
2018-07-17T12:59:49.964Z,101309.74
2018-07-17T13:02:17.762Z,101311.30
2018-07-17T13:04:46.015Z,101311.90
2018-07-17T13:07:14.062Z,101303.83
2018-07-17T13:09:41.757Z,101303.33
2018-07-17T13:12:09.477Z,101302.50
2018-07-17T13:14:37.662Z,101311.73
2018-07-17T13:17:05.515Z,101306.62
2018-07-17T13:19:33.520Z,101314.42
2018-07-17T13:22:01.279Z,101309.97
2018-07-17T13:24:28.918Z,101304.34
2018-07-17T13:26:56.575Z,101307.39
2018-07-17T13:29:24.906Z,101307.84
2018-07-17T13:31:52.851Z,101309.52
2018-07-17T13:34:20.809Z,101305.70
2018-07-17T13:36:49.077Z,101304.32
2018-07-17T13:39:16.931Z,101304.62
2018-07-17T13:41:44.658Z,101308.45
2018-07-17T13:44:12.565Z,101299.42
2018-07-17T13:46:40.605Z,101304.20
2018-07-17T13:49:08.298Z,101307.25
2018-07-17T13:51:36.168Z,101308.30
2018-07-17T13:54:04.100Z,101306.05
2018-07-17T13:56:31.733Z,101306.27
2018-07-17T13:58:59.379Z,101304.81
2018-07-17T14:01:27.386Z,101305.15
2018-07-17T14:03:55.568Z,101303.23
2018-07-17T14:06:23.767Z,101300.00
2018-07-17T14:08:51.634Z,101294.20
2018-07-17T14:11:19.964Z,101296.33
2018-07-17T14:13:48.235Z,101290.87
2018-07-17T14:16:16.138Z,101290.80
2018-07-17T14:18:43.830Z,101290.34
2018-07-17T14:21:11.745Z,101291.50
2018-07-17T14:23:39.413Z,101291.13
2018-07-17T14:26:07.914Z,101287.55
2018-07-17T14:28:35.581Z,101289.12
2018-07-17T14:31:03.716Z,101290.31
2018-07-17T14:33:31.927Z,101285.72
2018-07-17T14:35:59.602Z,101298.72
2018-07-17T14:38:27.806Z,101285.02
2018-07-17T14:40:55.758Z,101286.62
2018-07-17T14:43:23.742Z,101289.33
2018-07-17T14:45:51.372Z,101289.47
2018-07-17T14:48:19.656Z,101286.02
2018-07-17T14:50:47.514Z,101278.61
2018-07-17T14:53:15.599Z,101242.41
2018-07-17T14:55:43.397Z,101275.84
2018-07-17T14:58:11.064Z,101285.25
2018-07-17T15:00:38.777Z,101284.71
2018-07-17T15:03:06.822Z,101281.97
2018-07-17T15:05:34.523Z,101280.63
2018-07-17T15:08:02.393Z,101283.20
2018-07-17T15:10:30.323Z,101278.19
2018-07-17T15:12:58.014Z,101276.17
2018-07-17T15:15:26.060Z,101280.22
2018-07-17T15:17:53.699Z,101281.18
2018-07-17T15:20:21.391Z,101269.45
2018-07-17T15:22:49.101Z,101278.21
2018-07-17T15:25:16.732Z,101275.73
2018-07-17T15:27:44.847Z,101278.20
2018-07-17T15:30:12.845Z,101276.48
2018-07-17T15:32:40.777Z,101277.73
2018-07-17T15:35:08.595Z,101272.88
2018-07-17T15:37:36.306Z,101271.92
2018-07-17T15:40:04.135Z,101273.07
2018-07-17T15:42:31.851Z,101273.66
2018-07-17T15:44:59.529Z,101276.60
2018-07-17T15:47:27.486Z,101279.16
2018-07-17T15:49:55.710Z,101276.50
2018-07-17T15:52:23.792Z,101274.88
2018-07-17T15:54:51.454Z,101268.01
2018-07-17T15:57:19.756Z,101273.64
2018-07-17T15:59:47.462Z,101273.45
2018-07-17T16:02:15.362Z,101266.31
2018-07-17T16:04:43.093Z,101273.17
2018-07-17T16:07:10.855Z,101267.27
2018-07-17T16:09:38.550Z,101273.08
2018-07-17T16:12:06.209Z,101271.44
2018-07-17T16:14:33.869Z,101270.19
2018-07-17T16:17:01.639Z,101276.09
2018-07-17T16:19:29.961Z,101268.67
2018-07-17T16:21:57.790Z,101263.39
2018-07-17T16:24:25.683Z,101269.92
2018-07-17T16:26:53.458Z,101265.81
2018-07-17T16:29:22.315Z,101261.78
2018-07-17T16:31:50.083Z,101265.23
2018-07-17T16:34:18.310Z,101260.66
2018-07-17T16:36:46.103Z,101267.25
2018-07-17T16:39:13.862Z,101260.63
2018-07-17T16:41:41.877Z,101264.02
2018-07-17T16:44:10.202Z,101262.79
2018-07-17T16:46:38.114Z,101262.48
2018-07-17T16:49:06.066Z,101267.72
2018-07-17T16:51:34.370Z,101267.14
2018-07-17T16:54:02.171Z,101271.63
2018-07-17T16:56:30.113Z,101265.14
2018-07-17T16:58:59.603Z,101259.66
2018-07-17T17:01:27.514Z,101265.72
2018-07-17T17:03:55.177Z,101265.39
2018-07-17T17:06:22.876Z,101261.47
2018-07-17T17:08:50.532Z,101269.15
2018-07-17T17:11:19.055Z,101272.54
2018-07-17T17:13:47.121Z,101266.02
2018-07-17T17:16:14.756Z,101263.81
2018-07-17T17:18:42.447Z,101268.80
2018-07-17T17:21:10.412Z,101264.31
2018-07-17T17:23:38.233Z,101269.34
2018-07-17T17:26:05.896Z,101267.97
2018-07-17T17:28:34.585Z,101269.38
2018-07-17T17:31:02.664Z,101270.28
2018-07-17T17:33:30.810Z,101266.00
2018-07-17T17:35:58.511Z,101268.45
2018-07-17T17:38:26.517Z,101268.45
2018-07-17T17:40:54.202Z,101275.03
2018-07-17T17:43:22.237Z,101280.72
2018-07-17T17:45:50.159Z,101276.39
2018-07-17T17:48:18.212Z,101281.43
2018-07-17T17:50:46.228Z,101283.53
2018-07-17T17:53:13.910Z,101291.00
2018-07-17T17:55:42.053Z,101301.16
2018-07-17T17:58:09.966Z,101314.72
2018-07-17T18:00:39.248Z,101332.52
2018-07-17T18:03:07.101Z,101343.36
2018-07-17T18:05:34.766Z,101355.80
2018-07-17T18:08:02.445Z,101358.14
2018-07-17T18:10:30.127Z,101361.28
2018-07-17T18:12:57.819Z,101370.34
2018-07-17T18:15:25.926Z,101387.28
2018-07-17T18:17:54.000Z,101372.72
2018-07-17T18:20:22.032Z,101379.62
2018-07-17T18:22:49.872Z,101388.16
2018-07-17T18:25:17.894Z,101399.66
2018-07-17T18:27:45.575Z,101415.73
2018-07-17T18:30:13.229Z,101423.77
2018-07-17T18:32:41.433Z,101426.47
2018-07-17T18:35:09.530Z,101429.09
2018-07-17T18:37:37.526Z,101437.06
2018-07-17T18:40:05.465Z,101441.76
2018-07-17T18:42:33.117Z,101440.31
2018-07-17T18:45:00.825Z,101437.44
2018-07-17T18:47:28.534Z,101429.95
2018-07-17T18:50:12.310Z,101439.72
2018-07-17T18:52:24.161Z,101421.69
2018-07-17T18:54:52.165Z,101448.60
2018-07-17T18:57:20.086Z,101433.66
2018-07-17T18:59:48.210Z,101442.27
2018-07-17T19:02:16.199Z,101427.59
2018-07-17T19:04:44.139Z,101435.12
2018-07-17T19:07:11.816Z,101430.09
2018-07-17T19:09:39.870Z,101435.77
2018-07-17T19:12:07.826Z,101431.23
2018-07-17T19:14:35.468Z,101432.11
2018-07-17T19:17:03.131Z,101431.88
2018-07-17T19:19:31.065Z,101439.47
2018-07-17T19:21:59.254Z,101432.58
2018-07-17T19:24:27.136Z,101432.00
2018-07-17T19:26:54.972Z,101440.77
2018-07-17T19:29:22.654Z,101432.17
2018-07-17T19:31:50.572Z,101445.61
2018-07-17T19:34:18.484Z,101455.17
2018-07-17T19:36:46.949Z,101450.95
2018-07-17T19:39:14.607Z,101460.78
2018-07-17T19:41:42.244Z,101464.53
2018-07-17T19:44:10.235Z,101460.23
2018-07-17T19:46:37.885Z,101464.47
2018-07-17T19:49:05.902Z,101471.19
2018-07-17T19:51:33.561Z,101467.97
2018-07-17T19:54:01.753Z,101467.34
2018-07-17T19:56:29.476Z,101472.41
2018-07-17T19:59:00.254Z,101476.53
2018-07-17T20:01:28.393Z,101469.12
2018-07-17T20:03:56.377Z,101477.58
2018-07-17T20:06:24.290Z,101477.83
2018-07-17T20:08:51.915Z,101473.52
2018-07-17T20:11:19.940Z,101481.14
2018-07-17T20:13:47.538Z,101484.42
2018-07-17T20:16:15.456Z,101480.99
2018-07-17T20:18:43.713Z,101480.74
2018-07-17T20:21:11.732Z,101487.07
2018-07-17T20:23:39.459Z,101487.66
2018-07-17T20:26:07.666Z,101485.94
2018-07-17T20:28:35.667Z,101487.34
2018-07-17T20:31:03.978Z,101490.55
2018-07-17T20:33:31.888Z,101492.89
2018-07-17T20:35:59.626Z,101491.69
2018-07-17T20:38:27.947Z,101497.14
2018-07-17T20:40:55.688Z,101498.14
2018-07-17T20:43:23.308Z,101499.16
2018-07-17T20:45:50.960Z,101496.10
2018-07-17T20:48:18.966Z,101507.25
2018-07-17T20:50:46.931Z,101506.09
2018-07-17T20:53:14.567Z,101501.30
2018-07-17T20:55:42.278Z,101502.23
2018-07-17T20:58:09.943Z,101499.64
2018-07-17T21:00:37.649Z,101506.28
2018-07-17T21:03:05.317Z,101506.34
2018-07-17T21:05:33.240Z,101515.25
2018-07-17T21:08:01.149Z,101513.15
2018-07-17T21:10:29.103Z,101519.47
2018-07-17T21:12:56.984Z,101523.87
2018-07-17T21:15:24.976Z,101526.59
2018-07-17T21:17:52.874Z,101530.18
2018-07-17T21:20:20.562Z,101539.87
2018-07-17T21:22:48.229Z,101538.16
2018-07-17T21:25:16.469Z,101549.71
2018-07-17T21:27:44.131Z,101542.65
2018-07-17T21:30:11.807Z,101552.43
2018-07-17T21:32:40.046Z,101554.28
2018-07-17T21:35:07.750Z,101557.09
2018-07-17T21:37:35.853Z,101552.69
2018-07-17T21:40:03.957Z,101557.99
2018-07-17T21:42:31.574Z,101558.48
2018-07-17T21:44:59.219Z,101558.99
2018-07-17T21:47:27.235Z,101565.63
2018-07-17T21:49:54.922Z,101562.59
2018-07-17T21:52:22.897Z,101562.65
2018-07-17T21:54:50.491Z,101572.48
2018-07-17T21:57:18.482Z,101571.22
2018-07-17T21:59:46.402Z,101568.63
2018-07-17T22:02:14.045Z,101574.00
2018-07-17T22:04:41.746Z,101573.16
2018-07-17T22:07:09.430Z,101570.95
2018-07-17T22:09:37.081Z,101573.61
2018-07-17T22:12:04.962Z,101578.98
2018-07-17T22:14:33.135Z,101585.68
2018-07-17T22:17:00.786Z,101581.31
2018-07-17T22:19:29.275Z,101576.94
2018-07-17T22:21:57.189Z,101569.48
2018-07-17T22:24:24.822Z,101571.30
2018-07-17T22:26:52.550Z,101573.08
2018-07-17T22:29:20.192Z,101571.36
2018-07-17T22:31:47.803Z,101583.75
2018-07-17T22:34:15.721Z,101580.31
2018-07-17T22:36:43.762Z,101583.48
2018-07-17T22:39:11.458Z,101577.78
2018-07-17T22:41:39.145Z,101585.36
2018-07-17T22:44:07.105Z,101591.17
2018-07-17T22:46:35.021Z,101579.77
2018-07-17T22:49:02.680Z,101579.77
2018-07-17T22:51:30.578Z,101584.30
2018-07-17T22:53:58.476Z,101582.55
2018-07-17T22:56:27.013Z,101587.07
2018-07-17T22:58:54.956Z,101597.69
2018-07-17T23:01:22.585Z,101591.98
2018-07-17T23:03:50.257Z,101588.06
2018-07-17T23:06:17.916Z,101589.45
2018-07-17T23:08:45.760Z,101585.53
2018-07-17T23:11:13.435Z,101582.94
2018-07-17T23:13:41.059Z,101580.83
2018-07-17T23:16:09.306Z,101572.05
2018-07-17T23:18:37.249Z,101572.53
2018-07-17T23:21:05.183Z,101579.62
2018-07-17T23:23:33.145Z,101577.90
2018-07-17T23:26:00.781Z,101575.24
2018-07-17T23:28:28.787Z,101569.13
2018-07-17T23:30:56.689Z,101569.55
2018-07-17T23:33:24.548Z,101570.93
2018-07-17T23:35:52.188Z,101574.06
2018-07-17T23:38:20.612Z,101573.28
2018-07-17T23:40:48.885Z,101580.75
2018-07-17T23:43:16.497Z,101579.03
2018-07-17T23:45:44.271Z,101579.97
2018-07-17T23:48:11.901Z,101574.66
2018-07-17T23:50:39.821Z,101577.38
2018-07-17T23:53:07.557Z,101574.33
2018-07-17T23:55:35.458Z,101576.10
2018-07-17T23:58:03.095Z,101577.48
